Time;durP1;ratioP1;P1;durP2;ratioP2;P2;SDS_P1;SDS_P2;PMS_P1;PMS_P2;Temp;Humidity;BMP_temperature;BMP_pressure;BME280_temperature;BME280_humidity;BME280_pressure;Samples;Min_cycle;Max_cycle;Signal;HPM_P1;HPM_P2
2022/07/17 00:07:15;;;;;;;2.60;2.00;;;17.60;57.80;;;;;;20917276;28;20696;-68
2022/07/17 00:17:17;;;;;;;5.00;1.97;;;17.50;58.20;;;;;;20916184;28;20337;-68
2022/07/17 00:27:19;;;;;;;6.37;1.93;;;17.30;58.30;;;;;;20916143;28;20708;-69
2022/07/17 00:37:21;;;;;;;2.77;1.83;;;17.20;58.70;;;;;;20914022;28;20290;-69
2022/07/17 00:47:23;;;;;;;3.00;2.07;;;17.00;59.20;;;;;;20911203;28;20248;-69
2022/07/17 00:57:26;;;;;;;3.73;2.10;;;16.70;59.60;;;;;;20913688;28;20231;-69
2022/07/17 01:07:28;;;;;;;6.00;2.10;;;16.70;60.20;;;;;;20912612;28;20215;-68
2022/07/17 01:17:31;;;;;;;4.13;2.10;;;16.70;60.10;;;;;;20912222;28;20729;-68
2022/07/17 01:27:32;;;;;;;3.97;2.10;;;16.60;60.40;;;;;;20912417;28;20212;-68
2022/07/17 01:37:34;;;;;;;6.87;1.80;;;16.50;60.60;;;;;;20911650;28;20590;-68
2022/07/17 01:47:36;;;;;;;2.93;1.87;;;16.40;60.70;;;;;;20919043;28;20242;-69
2022/07/17 01:57:39;;;;;;;5.17;2.00;;;16.20;60.80;;;;;;20959769;28;20234;-69
2022/07/17 02:07:41;;;;;;;4.33;1.80;;;16.20;61.00;;;;;;20926753;28;20209;-69
2022/07/17 02:17:43;;;;;;;4.53;2.20;;;16.10;61.30;;;;;;20925829;28;20649;-68
2022/07/17 02:27:44;;;;;;;6.53;3.93;;;16.00;61.80;;;;;;20925500;28;20219;-68
2022/07/17 02:37:46;;;;;;;4.93;2.03;;;15.80;62.10;;;;;;20923752;28;20655;-68
2022/07/17 02:47:48;;;;;;;2.30;2.10;;;15.70;62.30;;;;;;20920973;28;20228;-69
2022/07/17 02:57:50;;;;;;;9.17;1.90;;;15.60;62.70;;;;;;20921680;28;20710;-69
2022/07/17 03:07:51;;;;;;;5.00;1.80;;;15.40;63.00;;;;;;20921698;28;20207;-68
2022/07/17 03:17:53;;;;;;;3.10;1.90;;;15.40;63.50;;;;;;20921138;28;20211;-68
2022/07/17 03:27:55;;;;;;;4.77;1.90;;;15.20;63.90;;;;;;20920682;28;20219;-68
2022/07/17 03:37:56;;;;;;;2.20;1.90;;;15.00;64.30;;;;;;20919712;28;20662;-68
2022/07/17 03:47:58;;;;;;;4.80;2.40;;;15.00;64.80;;;;;;20918642;28;20235;-68
2022/07/17 03:58:00;;;;;;;2.13;1.70;;;14.90;65.00;;;;;;20918291;28;20265;-69
2022/07/17 04:08:01;;;;;;;4.53;1.93;;;14.80;65.40;;;;;;20916780;28;20211;-69
2022/07/17 04:18:03;;;;;;;4.13;1.87;;;14.80;65.70;;;;;;20916442;28;20216;-67
2022/07/17 04:28:05;;;;;;;4.20;2.07;;;14.80;65.70;;;;;;20915913;28;20204;-69
2022/07/17 04:38:08;;;;;;;6.20;2.20;;;14.70;66.30;;;;;;20916788;28;20215;-69
2022/07/17 04:48:10;;;;;;;3.67;2.03;;;14.70;66.80;;;;;;20994414;28;20281;-67
2022/07/17 04:58:12;;;;;;;3.67;2.40;;;14.80;67.00;;;;;;20996647;28;20222;-68
2022/07/17 05:08:16;;;;;;;8.33;2.23;;;15.00;66.90;;;;;;20995781;28;20213;-70
2022/07/17 05:18:17;;;;;;;3.30;2.60;;;15.40;66.70;;;;;;20994608;28;20238;-69
2022/07/17 05:28:19;;;;;;;7.27;4.10;;;15.40;66.30;;;;;;20995349;28;20211;-69
2022/07/17 05:38:21;;;;;;;7.77;2.50;;;15.50;66.40;;;;;;20994605;28;20663;-69
2022/07/17 05:48:23;;;;;;;5.00;4.03;;;15.70;66.00;;;;;;20994000;28;20242;-70
2022/07/17 05:58:25;;;;;;;5.80;2.90;;;15.90;65.40;;;;;;20994265;28;20211;-69
2022/07/17 06:08:26;;;;;;;4.97;2.40;;;16.00;64.90;;;;;;20993369;28;20619;-70
2022/07/17 06:18:28;;;;;;;6.97;2.30;;;16.30;64.00;;;;;;20992985;28;20201;-69
2022/07/17 06:28:30;;;;;;;10.97;3.53;;;16.70;63.40;;;;;;20992821;28;20233;-70
2022/07/17 06:38:33;;;;;;;4.80;2.70;;;16.90;62.60;;;;;;21000567;28;20208;-70
2022/07/17 06:48:35;;;;;;;6.83;2.60;;;17.30;62.20;;;;;;21003021;28;20249;-70
2022/07/17 06:58:37;;;;;;;5.93;2.20;;;17.60;61.60;;;;;;21005034;28;20206;-70
2022/07/17 07:08:38;;;;;;;3.87;1.90;;;17.80;61.00;;;;;;21004804;28;20231;-70
2022/07/17 07:18:40;;;;;;;6.70;1.77;;;18.20;60.60;;;;;;21004198;28;20223;-70
2022/07/17 07:28:42;;;;;;;6.50;1.80;;;18.50;60.10;;;;;;21003531;28;20231;-70
2022/07/17 07:38:45;;;;;;;7.77;2.13;;;18.90;59.40;;;;;;21002513;28;20204;-70
2022/07/17 07:48:47;;;;;;;7.07;2.23;;;19.20;58.40;;;;;;21000728;28;20241;-70
2022/07/17 07:58:49;;;;;;;4.10;1.50;;;19.50;57.10;;;;;;21000812;28;20212;-69
2022/07/17 08:08:51;;;;;;;6.57;1.93;;;19.90;56.00;;;;;;20999715;28;20245;-71
2022/07/17 08:18:52;;;;;;;2.70;1.40;;;20.30;55.80;;;;;;20999123;28;20665;-69
2022/07/17 08:28:54;;;;;;;7.40;2.17;;;20.60;54.70;;;;;;20998440;28;20245;-69
2022/07/17 08:38:56;;;;;;;7.00;2.60;;;21.00;53.80;;;;;;20995070;28;20253;-70
2022/07/17 08:48:59;;;;;;;8.03;3.77;;;21.30;52.70;;;;;;20911280;28;20239;-70
2022/07/17 08:59:01;;;;;;;4.97;1.60;;;21.50;51.70;;;;;;20913327;28;20215;-70
2022/07/17 09:09:10;;;;;;;2.90;1.50;;;21.80;50.90;;;;;;20912931;28;20678;-70
2022/07/17 09:19:22;;;;;;;8.67;1.30;;;22.10;50.30;;;;;;20912338;28;20603;-69
2022/07/17 09:29:24;;;;;;;3.20;1.40;;;22.30;49.20;;;;;;20911727;28;20601;-69
2022/07/17 09:39:39;;;;;;;2.83;1.60;;;22.50;48.70;;;;;;20911868;28;20546;-71
2022/07/17 09:49:41;;;;;;;2.60;1.20;;;22.70;48.10;;;;;;20911383;28;20227;-69
2022/07/17 09:59:47;;;;;;;3.33;1.70;;;22.90;47.30;;;;;;20911014;28;20213;-68
2022/07/17 10:09:49;;;;;;;4.03;1.47;;;23.10;46.70;;;;;;20920363;28;20441;-69
2022/07/17 10:19:54;;;;;;;7.27;1.87;;;23.30;46.20;;;;;;20925940;28;20560;-70
2022/07/17 10:30:06;;;;;;;2.47;1.33;;;23.60;46.20;;;;;;20925762;28;20270;-70
2022/07/17 10:40:14;;;;;;;2.60;1.40;;;23.70;45.30;;;;;;20923844;28;20220;-69
2022/07/17 10:50:19;;;;;;;5.60;1.20;;;23.80;45.10;;;;;;20920743;28;20235;-70
2022/07/17 11:00:20;;;;;;;3.83;1.13;;;23.90;44.60;;;;;;20921961;28;20216;-70
2022/07/17 11:10:25;;;;;;;2.00;1.40;;;24.00;44.40;;;;;;20922296;28;20232;-70
2022/07/17 11:20:27;;;;;;;4.57;1.50;;;24.00;43.40;;;;;;20919797;28;20258;-70
2022/07/17 11:30:29;;;;;;;2.87;1.20;;;24.10;43.00;;;;;;20920317;28;20244;-70
2022/07/17 11:40:31;;;;;;;2.53;1.40;;;24.10;42.80;;;;;;20919740;28;20255;-68
2022/07/17 11:50:33;;;;;;;3.23;1.30;;;24.30;42.40;;;;;;20918619;28;20227;-70
2022/07/17 12:00:35;;;;;;;5.27;1.60;;;24.50;42.00;;;;;;20917951;28;20231;-70
2022/07/17 12:10:37;;;;;;;2.33;1.63;;;24.80;41.30;;;;;;20917186;28;20238;-70
2022/07/17 12:20:44;;;;;;;2.23;1.20;;;25.10;39.70;;;;;;20916220;28;20671;-70
2022/07/17 12:30:46;;;;;;;8.97;2.67;;;25.50;38.20;;;;;;20914654;28;20239;-70
2022/07/17 12:40:48;;;;;;;3.17;1.23;;;25.80;37.70;;;;;;20913703;28;20239;-68
2022/07/17 12:50:50;;;;;;;3.40;1.30;;;26.00;37.20;;;;;;20911510;28;20270;-70
2022/07/17 13:00:52;;;;;;;2.93;1.47;;;26.00;36.90;;;;;;20913169;28;20219;-70
2022/07/17 13:10:53;;;;;;;2.13;1.30;;;26.00;37.00;;;;;;20913020;28;20282;-71
2022/07/17 13:20:55;;;;;;;4.07;2.33;;;26.00;37.30;;;;;;20912118;28;20208;-70
2022/07/17 13:31:02;;;;;;;4.63;2.83;;;26.00;37.30;;;;;;20912225;28;20856;-68
2022/07/17 13:41:05;;;;;;;4.10;2.60;;;26.10;37.10;;;;;;20915545;28;20798;-69
2022/07/17 13:51:07;;;;;;;2.83;1.27;;;26.10;36.00;;;;;;20928120;28;20236;-69
2022/07/17 14:01:08;;;;;;;2.43;1.07;;;26.30;35.70;;;;;;20927350;28;20286;-69
2022/07/17 14:11:11;;;;;;;15.47;3.33;;;26.40;33.90;;;;;;20926765;28;20326;-70
2022/07/17 14:21:13;;;;;;;4.23;1.47;;;26.40;33.00;;;;;;20925582;28;20663;-70
2022/07/17 14:31:16;;;;;;;2.57;1.70;;;26.60;32.80;;;;;;20924775;28;20242;-69
2022/07/17 14:41:18;;;;;;;4.10;1.80;;;26.80;32.80;;;;;;20923776;28;20230;-69
2022/07/17 14:51:20;;;;;;;1.37;1.00;;;26.80;31.70;;;;;;20951248;28;20289;-69
2022/07/17 15:01:22;;;;;;;3.17;1.30;;;27.10;31.90;;;;;;20922390;28;20566;-63
2022/07/17 15:11:23;;;;;;;12.13;2.67;;;27.80;32.70;;;;;;20924709;28;20226;-63
2022/07/17 15:21:25;;;;;;;4.90;1.90;;;27.20;34.80;;;;;;21003427;28;20203;-65
2022/07/17 15:31:47;;;;;;;50.75;3.17;;;27.10;37.40;;;;;;21003928;28;20231;-63
2022/07/17 15:41:49;;;;;;;2.93;1.27;;;27.40;39.10;;;;;;21002132;28;20707;-64
2022/07/17 15:51:51;;;;;;;6.43;1.93;;;26.80;40.70;;;;;;20997256;28;20230;-71
2022/07/17 16:01:52;;;;;;;3.50;1.27;;;26.60;37.70;;;;;;20998016;28;20208;-70
2022/07/17 16:11:54;;;;;;;2.53;1.43;;;26.50;38.60;;;;;;20998409;28;20286;-70
2022/07/17 16:21:56;;;;;;;10.05;2.38;;;27.40;38.70;;;;;;20996969;28;20562;-71
2022/07/17 16:31:58;;;;;;;2.77;1.50;;;27.40;38.60;;;;;;20998089;28;20288;-69
2022/07/17 16:42:00;;;;;;;2.37;1.63;;;27.00;36.80;;;;;;20995506;28;20231;-71
2022/07/17 16:52:03;;;;;;;3.37;1.70;;;26.80;36.40;;;;;;20911871;28;20610;-70
2022/07/17 17:02:04;;;;;;;2.63;1.53;;;26.50;36.10;;;;;;20913036;28;20204;-71
2022/07/17 17:12:07;;;;;;;2.63;1.37;;;26.40;34.90;;;;;;20915802;28;20231;-72
2022/07/17 17:22:08;;;;;;;2.90;1.80;;;26.30;36.20;;;;;;20944927;28;20246;-74
2022/07/17 17:32:10;;;;;;;3.03;1.70;;;26.20;37.10;;;;;;20935430;28;20235;-73
2022/07/17 17:42:12;;;;;;;4.03;1.60;;;26.20;37.70;;;;;;20994926;28;20231;-73
2022/07/17 17:52:14;;;;;;;4.53;1.43;;;26.40;37.80;;;;;;20993580;28;20265;-70
2022/07/17 18:02:15;;;;;;;1.77;1.40;;;26.50;37.90;;;;;;20991169;28;20207;-71
2022/07/17 18:12:17;;;;;;;1.47;1.20;;;26.30;38.30;;;;;;20939674;28;20232;-70
2022/07/17 18:22:19;;;;;;;5.80;1.50;;;25.90;38.90;;;;;;20909470;28;20219;-65
2022/07/17 18:32:21;;;;;;;9.67;1.90;;;25.70;40.60;;;;;;20920118;28;20239;-70
2022/07/17 18:42:22;;;;;;;6.53;1.33;;;25.60;42.40;;;;;;20924482;28;20703;-71
2022/07/17 18:52:24;;;;;;;3.57;1.73;;;25.30;42.50;;;;;;21001381;28;20587;-71
2022/07/17 19:02:26;;;;;;;7.10;1.70;;;25.10;43.40;;;;;;21004860;28;20195;-73
2022/07/17 19:12:28;;;;;;;2.37;1.70;;;24.90;44.10;;;;;;21004081;28;20642;-78
2022/07/17 19:22:30;;;;;;;4.23;1.97;;;24.70;43.50;;;;;;21003629;28;20211;-70
2022/07/17 19:32:32;;;;;;;3.57;2.10;;;24.50;42.00;;;;;;21003106;28;20261;-72
2022/07/17 19:42:33;;;;;;;13.50;2.60;;;24.30;41.60;;;;;;21001346;28;20586;-73
2022/07/17 19:52:36;;;;;;;7.23;1.67;;;24.10;41.40;;;;;;21001432;28;20246;-73
2022/07/17 20:02:37;;;;;;;3.73;1.40;;;23.90;41.70;;;;;;21000242;28;20203;-73
2022/07/17 20:12:39;;;;;;;4.70;1.47;;;23.60;42.20;;;;;;20999992;28;20760;-69
2022/07/17 20:22:41;;;;;;;4.40;1.23;;;23.40;42.80;;;;;;20996632;28;20208;-71
2022/07/17 20:32:43;;;;;;;3.10;1.53;;;23.10;43.10;;;;;;20968735;28;20238;-71
2022/07/17 20:42:45;;;;;;;7.87;1.60;;;22.70;43.50;;;;;;20995579;28;20239;-66
2022/07/17 20:52:47;;;;;;;9.67;1.50;;;22.50;43.80;;;;;;20996876;28;20253;-67
2022/07/17 21:02:50;;;;;;;4.27;1.60;;;22.20;44.60;;;;;;20996435;28;20360;-69
2022/07/17 21:12:51;;;;;;;3.90;1.40;;;22.00;45.10;;;;;;20995879;28;20231;-67
2022/07/17 21:22:53;;;;;;;3.03;1.60;;;21.80;45.70;;;;;;20994594;28;20223;-68
2022/07/17 21:32:55;;;;;;;2.50;1.50;;;21.60;46.10;;;;;;20994938;28;20234;-67
2022/07/17 21:42:57;;;;;;;6.30;1.50;;;21.40;46.40;;;;;;20994512;28;20241;-67
2022/07/17 21:52:59;;;;;;;3.63;1.50;;;21.20;46.90;;;;;;20994481;28;20242;-71
2022/07/17 22:03:01;;;;;;;3.07;1.70;;;21.00;47.50;;;;;;20999120;28;20659;-67
2022/07/17 22:13:03;;;;;;;6.90;1.70;;;20.80;47.70;;;;;;21009610;28;20238;-69
2022/07/17 22:23:05;;;;;;;3.73;1.30;;;20.70;48.40;;;;;;20969176;28;20210;-66
2022/07/17 22:33:07;;;;;;;5.20;1.80;;;20.60;48.90;;;;;;21007935;28;20238;-68
2022/07/17 22:43:08;;;;;;;6.40;1.70;;;20.40;49.00;;;;;;21007092;28;20593;-66
2022/07/17 22:53:10;;;;;;;8.30;1.90;;;20.20;49.20;;;;;;21005581;28;20699;-67
2022/07/17 23:03:12;;;;;;;3.90;1.50;;;20.00;49.70;;;;;;21005966;28;20592;-68
2022/07/17 23:13:14;;;;;;;3.20;1.53;;;19.90;50.00;;;;;;21004969;28;20353;-66
2022/07/17 23:23:16;;;;;;;3.53;1.60;;;19.80;50.40;;;;;;21004690;28;20564;-67
2022/07/17 23:33:17;;;;;;;4.23;1.33;;;19.60;50.50;;;;;;21003471;28;20321;-67
2022/07/17 23:43:20;;;;;;;3.97;1.57;;;19.30;51.40;;;;;;21002470;28;20246;-67
2022/07/17 23:53:21;;;;;;;2.80;1.60;;;19.20;51.80;;;;;;21002052;28;20238;-67
